createdAt,value
2023-04-27T00:02:28.259Z,8.85
2023-04-27T00:04:57.309Z,8.82
2023-04-27T00:07:26.708Z,8.79
2023-04-27T00:09:55.029Z,8.76
2023-04-27T00:12:23.331Z,8.80
2023-04-27T00:14:53.032Z,8.74
2023-04-27T00:17:21.563Z,8.80
2023-04-27T00:19:49.836Z,8.70
2023-04-27T00:22:18.205Z,8.71
2023-04-27T00:24:46.535Z,8.65
2023-04-27T00:27:14.846Z,8.66
2023-04-27T00:29:43.235Z,8.64
2023-04-27T00:32:13.248Z,8.54
2023-04-27T00:34:41.553Z,8.54
2023-04-27T00:37:10.155Z,8.44
2023-04-27T00:39:38.571Z,8.33
2023-04-27T00:42:11.418Z,8.36
2023-04-27T00:44:39.998Z,8.29
2023-04-27T00:47:08.667Z,8.28
2023-04-27T00:49:38.908Z,8.22
2023-04-27T00:52:07.861Z,8.22
2023-04-27T00:54:36.369Z,8.23
2023-04-27T00:57:05.336Z,8.25
2023-04-27T00:59:33.691Z,8.21
2023-04-27T01:02:02.844Z,8.14
2023-04-27T01:04:32.491Z,8.06
2023-04-27T01:07:03.291Z,8.02
2023-04-27T01:09:31.713Z,8.06
2023-04-27T01:12:00.115Z,7.98
2023-04-27T01:14:28.359Z,7.97
2023-04-27T01:16:56.665Z,7.83
2023-04-27T01:19:25.196Z,7.83
2023-04-27T01:21:53.533Z,7.83
2023-04-27T01:24:23.233Z,7.79
2023-04-27T01:26:53.991Z,7.78
2023-04-27T01:29:22.669Z,7.70
2023-04-27T01:31:51.116Z,7.70
2023-04-27T01:34:19.372Z,7.72
2023-04-27T01:36:47.645Z,7.73
2023-04-27T01:39:16.489Z,7.63
2023-04-27T01:41:46.415Z,7.61
2023-04-27T01:44:14.622Z,7.60
2023-04-27T01:46:42.978Z,7.58
2023-04-27T01:49:11.504Z,7.56
2023-04-27T01:51:40.023Z,7.59
2023-04-27T01:54:08.337Z,7.55
2023-04-27T01:56:36.545Z,7.44
2023-04-27T01:59:06.245Z,7.42
2023-04-27T02:01:34.636Z,7.40
2023-04-27T02:04:03.191Z,7.38
2023-04-27T02:06:31.598Z,7.35
2023-04-27T02:08:59.981Z,7.34
2023-04-27T02:11:28.292Z,7.27
2023-04-27T02:13:56.573Z,7.28
2023-04-27T02:16:27.271Z,7.23
2023-04-27T02:18:55.513Z,7.21
2023-04-27T02:21:23.776Z,7.26
2023-04-27T02:23:52.058Z,7.19
2023-04-27T02:26:21.156Z,7.19
2023-04-27T02:28:50.280Z,7.16
2023-04-27T02:31:19.136Z,7.17
2023-04-27T02:33:48.919Z,7.17
2023-04-27T02:36:17.308Z,7.18
2023-04-27T02:38:45.604Z,7.15
2023-04-27T02:41:13.984Z,7.12
2023-04-27T02:43:42.222Z,7.14
2023-04-27T02:46:12.044Z,7.17
2023-04-27T02:48:40.334Z,7.19
2023-04-27T02:51:10.047Z,7.10
2023-04-27T02:53:38.281Z,7.12
2023-04-27T02:56:07.040Z,7.07
2023-04-27T02:58:35.319Z,7.08
2023-04-27T03:01:04.039Z,7.07
2023-04-27T03:03:32.431Z,7.03
2023-04-27T03:06:00.953Z,7.04
2023-04-27T03:08:30.597Z,7.09
2023-04-27T03:10:58.828Z,7.10
2023-04-27T03:13:28.135Z,7.06
2023-04-27T03:15:56.421Z,7.07
2023-04-27T03:18:24.843Z,7.08
2023-04-27T03:20:53.142Z,7.08
2023-04-27T03:23:21.389Z,7.07
2023-04-27T03:25:51.210Z,7.10
2023-04-27T03:28:19.453Z,7.12
2023-04-27T03:30:47.654Z,7.17
2023-04-27T03:33:15.878Z,7.12
2023-04-27T03:35:44.169Z,7.17
2023-04-27T03:38:12.373Z,7.12
2023-04-27T03:40:40.576Z,7.18
2023-04-27T03:43:10.418Z,7.12
2023-04-27T03:45:38.694Z,7.23
2023-04-27T03:48:07.765Z,7.20
2023-04-27T03:50:36.068Z,7.21
2023-04-27T03:53:04.553Z,7.32
2023-04-27T03:55:32.808Z,7.40
2023-04-27T03:58:01.095Z,7.66
2023-04-27T04:00:31.619Z,7.71
2023-04-27T04:02:59.910Z,7.61
2023-04-27T04:05:28.502Z,7.43
2023-04-27T04:07:56.951Z,7.46
2023-04-27T04:10:25.719Z,7.51
2023-04-27T04:12:54.276Z,7.58
2023-04-27T04:15:22.450Z,7.70
2023-04-27T04:17:52.598Z,7.81
2023-04-27T04:20:21.069Z,8.09
2023-04-27T04:22:49.333Z,8.42
2023-04-27T04:25:18.058Z,8.57
2023-04-27T04:27:46.340Z,8.81
2023-04-27T04:30:15.235Z,8.68
2023-04-27T04:32:45.133Z,8.74
2023-04-27T04:35:16.295Z,8.96
2023-04-27T04:37:44.648Z,8.40
2023-04-27T04:40:14.129Z,8.52
2023-04-27T04:42:42.600Z,8.58
2023-04-27T04:45:11.762Z,8.40
2023-04-27T04:47:40.673Z,8.50
2023-04-27T04:50:10.722Z,9.02
2023-04-27T04:52:40.594Z,8.83
2023-04-27T04:55:09.304Z,8.54
2023-04-27T04:57:37.695Z,8.40
2023-04-27T05:00:11.613Z,8.52
2023-04-27T05:02:40.203Z,8.47
2023-04-27T05:05:09.299Z,8.32
2023-04-27T05:07:37.731Z,8.48
2023-04-27T05:10:08.233Z,8.50
2023-04-27T05:12:36.543Z,8.51
2023-04-27T05:15:05.076Z,8.36
2023-04-27T05:17:33.480Z,8.38
2023-04-27T05:20:01.905Z,8.49
2023-04-27T05:22:30.183Z,8.33
2023-04-27T05:24:59.233Z,8.47
2023-04-27T05:27:30.210Z,8.39
2023-04-27T05:29:58.528Z,8.65
2023-04-27T05:32:26.961Z,8.65
2023-04-27T05:34:55.262Z,8.76
2023-04-27T05:37:23.679Z,8.98
2023-04-27T05:39:52.744Z,8.97
2023-04-27T05:42:21.046Z,9.13
2023-04-27T05:44:50.667Z,9.12
2023-04-27T05:47:18.876Z,9.32
2023-04-27T05:49:52.816Z,9.23
2023-04-27T05:52:21.321Z,9.19
2023-04-27T05:54:50.026Z,9.40
2023-04-27T05:57:18.380Z,9.49
2023-04-27T05:59:46.720Z,9.40
2023-04-27T06:02:16.757Z,9.46
2023-04-27T06:04:45.319Z,9.31
2023-04-27T06:07:16.179Z,9.39
2023-04-27T06:09:44.714Z,9.45
2023-04-27T06:12:13.041Z,9.48
2023-04-27T06:14:41.485Z,9.58
2023-04-27T06:17:09.768Z,9.73
2023-04-27T06:19:39.501Z,9.76
2023-04-27T06:22:07.818Z,9.86
2023-04-27T06:24:36.646Z,9.82
2023-04-27T06:27:05.139Z,9.87
2023-04-27T06:29:33.546Z,10.01
2023-04-27T06:32:01.987Z,10.09
2023-04-27T06:34:30.546Z,10.03
2023-04-27T06:37:00.173Z,10.25
2023-04-27T06:39:28.585Z,10.62
2023-04-27T06:41:57.048Z,11.28
2023-04-27T06:44:25.368Z,12.35
2023-04-27T06:46:53.883Z,12.35
2023-04-27T06:49:22.328Z,12.45
2023-04-27T06:51:50.859Z,12.83
2023-04-27T06:54:20.868Z,12.39
2023-04-27T06:56:49.113Z,11.94
2023-04-27T06:59:17.565Z,12.09
2023-04-27T07:01:46.536Z,11.74
2023-04-27T07:04:15.012Z,11.35
2023-04-27T07:06:43.592Z,11.24
2023-04-27T07:09:24.040Z,10.88
2023-04-27T07:11:57.437Z,10.83
2023-04-27T07:14:26.214Z,10.58
2023-04-27T07:16:54.739Z,10.80
2023-04-27T07:19:22.989Z,10.75
2023-04-27T07:21:51.999Z,10.89
2023-04-27T07:24:20.441Z,10.76
2023-04-27T07:26:49.334Z,10.64
2023-04-27T07:29:26.325Z,10.84
2023-04-27T07:31:55.803Z,11.00
2023-04-27T07:34:25.133Z,11.02
2023-04-27T07:36:54.563Z,10.98
2023-04-27T07:39:23.651Z,10.89
2023-04-27T07:41:51.869Z,11.22
2023-04-27T07:44:22.029Z,11.17
2023-04-27T07:46:50.257Z,11.61
2023-04-27T07:49:18.576Z,11.60
2023-04-27T07:51:47.044Z,11.62
2023-04-27T07:54:15.480Z,11.43
2023-04-27T07:56:44.281Z,11.75
2023-04-27T07:59:13.034Z,11.49
2023-04-27T08:01:45.768Z,11.32
2023-04-27T08:04:14.416Z,11.37
2023-04-27T08:06:47.044Z,11.29
2023-04-27T08:09:16.011Z,11.33
2023-04-27T08:11:44.565Z,11.35
2023-04-27T08:14:13.797Z,11.58
2023-04-27T08:16:44.762Z,11.99
2023-04-27T08:19:13.222Z,11.84
2023-04-27T08:21:41.683Z,11.94
2023-04-27T08:24:09.934Z,11.94
2023-04-27T08:26:38.373Z,11.94
2023-04-27T08:29:19.553Z,12.14
2023-04-27T08:31:57.120Z,12.46
2023-04-27T08:34:25.690Z,12.46
2023-04-27T08:36:54.171Z,12.37
2023-04-27T08:39:22.967Z,12.43
2023-04-27T08:41:51.764Z,12.34
2023-04-27T08:44:20.137Z,12.21
2023-04-27T08:46:48.943Z,12.41
2023-04-27T08:49:18.949Z,12.51
2023-04-27T08:51:47.464Z,12.66
2023-04-27T08:54:15.692Z,12.79
2023-04-27T08:56:44.154Z,12.60
2023-04-27T08:59:16.879Z,12.75
2023-04-27T09:01:47.100Z,12.80
2023-04-27T09:04:16.765Z,12.93
2023-04-27T09:06:46.890Z,13.34
2023-04-27T09:09:23.792Z,13.65
2023-04-27T09:11:52.470Z,13.43
2023-04-27T09:14:22.401Z,13.66
2023-04-27T09:16:57.818Z,13.57
2023-04-27T09:19:27.630Z,14.21
2023-04-27T09:22:07.448Z,14.40
2023-04-27T09:24:35.878Z,13.98
2023-04-27T09:27:05.093Z,13.87
2023-04-27T09:29:38.984Z,13.84
2023-04-27T09:32:17.919Z,13.89
2023-04-27T09:34:46.765Z,14.19
2023-04-27T09:37:16.902Z,14.29
2023-04-27T09:39:45.395Z,14.25
2023-04-27T09:42:14.265Z,13.90
2023-04-27T09:44:42.525Z,14.03
2023-04-27T09:47:12.383Z,14.64
2023-04-27T09:49:40.727Z,13.88
2023-04-27T09:52:08.978Z,14.03
2023-04-27T09:54:39.024Z,13.86
2023-04-27T09:57:18.965Z,13.69
2023-04-27T10:00:07.867Z,14.20
2023-04-27T10:02:53.189Z,14.39
2023-04-27T10:05:42.724Z,14.18
2023-04-27T10:08:12.164Z,14.17
2023-04-27T10:10:51.111Z,14.12
2023-04-27T10:13:24.093Z,14.16
2023-04-27T10:15:52.592Z,13.90
2023-04-27T10:18:28.898Z,13.97
2023-04-27T10:20:57.379Z,14.16
2023-04-27T10:23:26.664Z,14.24
2023-04-27T10:25:57.428Z,13.69
2023-04-27T10:28:25.642Z,13.85
2023-04-27T10:30:53.889Z,14.04
2023-04-27T10:33:24.354Z,14.29
2023-04-27T10:35:57.848Z,14.44
2023-04-27T10:38:30.351Z,14.29
2023-04-27T10:41:02.354Z,14.53
2023-04-27T10:43:31.962Z,14.08
2023-04-27T10:46:09.008Z,14.76
2023-04-27T10:48:37.354Z,14.93
2023-04-27T10:51:06.632Z,14.63
2023-04-27T10:53:38.128Z,14.41
2023-04-27T10:56:08.281Z,14.13
2023-04-27T10:58:48.280Z,14.24
2023-04-27T11:01:25.935Z,13.76
2023-04-27T11:03:57.293Z,13.86
2023-04-27T11:06:25.579Z,13.68
2023-04-27T11:08:53.874Z,13.85
2023-04-27T11:11:24.529Z,14.35
2023-04-27T11:13:53.458Z,14.29
2023-04-27T11:16:21.806Z,14.18
2023-04-27T11:18:50.066Z,14.05
2023-04-27T11:21:22.240Z,13.92
2023-04-27T11:23:50.658Z,14.14
2023-04-27T11:26:21.527Z,13.90
2023-04-27T11:29:05.298Z,13.78
2023-04-27T11:31:43.885Z,14.00
2023-04-27T11:34:19.324Z,13.97
2023-04-27T11:37:07.099Z,13.85
2023-04-27T11:39:41.704Z,13.64
2023-04-27T11:42:18.292Z,13.75
2023-04-27T11:44:54.365Z,14.00
2023-04-27T11:47:23.068Z,14.10
2023-04-27T11:49:52.704Z,13.87
2023-04-27T11:52:21.128Z,14.02
2023-04-27T11:54:50.873Z,14.28
2023-04-27T11:57:19.125Z,14.27
2023-04-27T11:59:47.536Z,14.21
2023-04-27T12:02:17.239Z,14.09
2023-04-27T12:04:45.895Z,14.12
2023-04-27T12:07:14.615Z,14.09
2023-04-27T12:09:43.512Z,14.04
2023-04-27T12:12:12.930Z,14.43
2023-04-27T12:14:41.559Z,14.53
2023-04-27T12:17:09.825Z,14.51
2023-04-27T12:19:39.497Z,14.29
2023-04-27T12:22:08.597Z,14.07
2023-04-27T12:24:37.518Z,14.03
2023-04-27T12:27:07.006Z,14.09
2023-04-27T12:29:35.336Z,14.40
2023-04-27T12:32:03.753Z,14.49
2023-04-27T12:34:32.010Z,14.62
2023-04-27T12:37:01.776Z,14.22
2023-04-27T12:39:30.318Z,13.69
2023-04-27T12:41:59.398Z,13.50
2023-04-27T12:44:28.042Z,13.80
2023-04-27T12:46:56.471Z,13.86
2023-04-27T12:49:24.723Z,13.97
2023-04-27T12:51:54.232Z,13.96
2023-04-27T12:54:23.994Z,14.36
2023-04-27T12:56:52.483Z,14.39
2023-04-27T12:59:20.758Z,14.33
2023-04-27T13:01:49.183Z,13.95
2023-04-27T13:04:22.098Z,13.96
2023-04-27T13:06:51.102Z,14.25
2023-04-27T13:09:19.367Z,14.50
2023-04-27T13:11:49.002Z,14.97
2023-04-27T13:14:17.357Z,14.84
2023-04-27T13:16:45.900Z,14.43
2023-04-27T13:19:14.373Z,14.42
2023-04-27T13:21:42.680Z,14.70
2023-04-27T13:24:10.950Z,14.59
2023-04-27T13:26:39.331Z,14.62
2023-04-27T13:29:09.184Z,14.45
2023-04-27T13:31:37.817Z,14.69
2023-04-27T13:34:06.228Z,14.76
2023-04-27T13:36:34.671Z,14.86
2023-04-27T13:39:02.920Z,14.87
2023-04-27T13:41:32.464Z,14.71
2023-04-27T13:44:00.805Z,14.33
2023-04-27T13:46:30.689Z,14.28
2023-04-27T13:48:59.008Z,13.86
2023-04-27T13:51:29.732Z,13.63
2023-04-27T13:53:58.098Z,13.43
2023-04-27T13:56:26.428Z,13.24
2023-04-27T13:58:54.746Z,13.46
2023-04-27T14:01:23.020Z,13.53
2023-04-27T14:04:17.483Z,13.56
2023-04-27T14:06:47.058Z,13.82
2023-04-27T14:09:15.688Z,13.73
2023-04-27T14:11:52.911Z,13.82
2023-04-27T14:14:24.664Z,13.62
2023-04-27T14:17:05.224Z,13.57
2023-04-27T14:19:34.962Z,13.43
2023-04-27T14:22:04.658Z,13.33
2023-04-27T14:24:32.927Z,13.50
2023-04-27T14:27:01.260Z,13.50
2023-04-27T14:29:29.621Z,13.47
2023-04-27T14:31:57.965Z,13.44
2023-04-27T14:34:26.264Z,13.20
2023-04-27T14:36:56.052Z,13.26
2023-04-27T14:39:24.559Z,13.35
2023-04-27T14:41:53.021Z,13.34
2023-04-27T14:44:21.252Z,13.46
2023-04-27T14:46:49.533Z,13.38
2023-04-27T14:49:17.986Z,13.40
2023-04-27T14:51:46.351Z,13.23
2023-04-27T14:54:16.155Z,13.19
2023-04-27T14:56:44.511Z,13.20
2023-04-27T14:59:12.956Z,13.09
2023-04-27T15:01:41.392Z,13.21
2023-04-27T15:04:11.969Z,13.11
2023-04-27T15:06:40.453Z,13.11
2023-04-27T15:09:09.064Z,13.15
2023-04-27T15:11:39.038Z,13.30
2023-04-27T15:14:08.748Z,13.22
2023-04-27T15:16:37.586Z,13.19
2023-04-27T15:19:05.858Z,13.03
2023-04-27T15:21:37.698Z,12.93
2023-04-27T15:24:06.320Z,12.67
2023-04-27T15:26:34.643Z,12.69
2023-04-27T15:29:04.652Z,12.69
2023-04-27T15:31:33.017Z,12.70
2023-04-27T15:34:01.250Z,12.78
2023-04-27T15:36:29.848Z,12.86
2023-04-27T15:38:59.420Z,12.84
2023-04-27T15:41:27.808Z,12.95
2023-04-27T15:43:56.312Z,12.98
2023-04-27T15:46:26.168Z,13.12
2023-04-27T15:48:54.440Z,13.11
2023-04-27T15:51:22.759Z,13.19
2023-04-27T15:53:50.961Z,13.21
2023-04-27T15:56:19.283Z,13.17
2023-04-27T15:58:47.742Z,13.19
2023-04-27T16:01:16.157Z,13.21
2023-04-27T16:03:46.046Z,12.94
2023-04-27T16:06:14.783Z,12.92
2023-04-27T16:08:43.304Z,12.75
2023-04-27T16:11:11.642Z,12.57
2023-04-27T16:13:39.942Z,12.50
2023-04-27T16:16:09.747Z,12.39
2023-04-27T16:18:38.807Z,12.26
2023-04-27T16:21:08.688Z,12.10
2023-04-27T16:23:36.930Z,12.02
2023-04-27T16:26:05.179Z,11.82
2023-04-27T16:28:33.936Z,11.82
2023-04-27T16:31:02.231Z,11.75
2023-04-27T16:33:30.771Z,11.60
2023-04-27T16:35:59.007Z,11.54
2023-04-27T16:38:28.902Z,11.40
2023-04-27T16:40:57.397Z,11.36
2023-04-27T16:43:25.949Z,11.29
2023-04-27T16:45:54.223Z,11.20
2023-04-27T16:48:22.452Z,11.14
2023-04-27T16:50:52.217Z,11.12
2023-04-27T16:53:22.052Z,11.10
2023-04-27T16:55:51.833Z,11.03
2023-04-27T16:58:20.235Z,11.03
2023-04-27T17:00:48.761Z,10.93
2023-04-27T17:03:17.187Z,10.82
2023-04-27T17:05:45.505Z,10.72
2023-04-27T17:08:13.778Z,10.64
2023-04-27T17:10:42.197Z,10.67
2023-04-27T17:13:12.625Z,10.60
2023-04-27T17:15:41.179Z,10.48
2023-04-27T17:18:09.956Z,10.43
2023-04-27T17:20:39.785Z,10.35
2023-04-27T17:23:09.967Z,10.27
2023-04-27T17:25:38.333Z,10.25
2023-04-27T17:28:06.856Z,10.26
2023-04-27T17:30:36.759Z,10.16
2023-04-27T17:33:05.199Z,10.22
2023-04-27T17:35:33.495Z,10.16
2023-04-27T17:38:01.891Z,10.13
2023-04-27T17:40:30.197Z,9.99
2023-04-27T17:42:58.641Z,9.94
2023-04-27T17:45:28.798Z,9.85
2023-04-27T17:47:58.659Z,9.87
2023-04-27T17:50:27.209Z,9.87
2023-04-27T17:52:55.507Z,9.83
2023-04-27T17:55:24.169Z,9.80
2023-04-27T17:57:52.682Z,9.82
2023-04-27T18:00:21.484Z,9.76
2023-04-27T18:02:50.070Z,9.71
2023-04-27T18:05:20.042Z,9.67
2023-04-27T18:07:50.131Z,9.71
2023-04-27T18:10:20.103Z,9.64
2023-04-27T18:12:48.329Z,9.63
2023-04-27T18:15:16.716Z,9.54
2023-04-27T18:17:45.328Z,9.53
2023-04-27T18:20:15.671Z,9.56
2023-04-27T18:22:45.368Z,9.57
2023-04-27T18:25:13.910Z,9.52
2023-04-27T18:27:44.088Z,9.47
2023-04-27T18:30:12.964Z,9.47
2023-04-27T18:32:41.182Z,9.47
2023-04-27T18:35:12.749Z,9.49
2023-04-27T18:37:41.005Z,9.37
2023-04-27T18:40:11.800Z,9.34
2023-04-27T18:42:40.201Z,9.36
2023-04-27T18:45:09.863Z,9.33
2023-04-27T18:47:38.124Z,9.32
2023-04-27T18:50:07.955Z,9.33
2023-04-27T18:52:36.220Z,9.29
2023-04-27T18:55:04.995Z,9.27
2023-04-27T18:57:35.037Z,9.29
2023-04-27T19:00:04.685Z,9.34
2023-04-27T19:02:33.107Z,9.31
2023-04-27T19:05:11.400Z,9.37
2023-04-27T19:07:41.245Z,9.42
2023-04-27T19:10:11.469Z,9.40
2023-04-27T19:12:41.385Z,9.39
2023-04-27T19:15:10.366Z,9.34
2023-04-27T19:17:38.726Z,9.35
2023-04-27T19:20:08.264Z,9.32
2023-04-27T19:22:37.148Z,9.29
2023-04-27T19:25:06.137Z,9.30
2023-04-27T19:27:34.526Z,9.23
2023-04-27T19:30:04.535Z,9.28
2023-04-27T19:32:34.387Z,9.26
2023-04-27T19:35:02.880Z,9.25
2023-04-27T19:37:31.372Z,9.25
2023-04-27T19:40:00.297Z,9.17
2023-04-27T19:42:28.740Z,9.15
2023-04-27T19:44:57.056Z,9.07
2023-04-27T19:47:27.001Z,9.01
2023-04-27T19:49:55.286Z,9.01
2023-04-27T19:52:25.137Z,8.95
2023-04-27T19:54:53.785Z,8.91
2023-04-27T19:57:22.264Z,8.93
2023-04-27T19:59:50.622Z,8.85
2023-04-27T20:02:19.038Z,8.80
2023-04-27T20:04:48.993Z,8.81
2023-04-27T20:07:17.701Z,8.74
2023-04-27T20:09:46.124Z,8.69
2023-04-27T20:12:34.804Z,8.60
2023-04-27T20:15:02.707Z,8.52
2023-04-27T20:17:31.453Z,8.41
2023-04-27T20:20:01.459Z,8.26
2023-04-27T20:22:29.747Z,8.29
2023-04-27T20:25:00.322Z,8.19
2023-04-27T20:27:28.565Z,8.25
2023-04-27T20:29:57.023Z,8.22
2023-04-27T20:32:25.305Z,8.16
2023-04-27T20:34:53.552Z,8.20
2023-04-27T20:37:23.358Z,8.18
2023-04-27T20:39:51.997Z,8.19
2023-04-27T20:42:20.883Z,8.18
2023-04-27T20:44:51.308Z,8.25
2023-04-27T20:47:19.670Z,8.12
2023-04-27T20:49:48.087Z,8.13
2023-04-27T20:52:16.503Z,8.12
2023-04-27T20:54:46.192Z,8.13
2023-04-27T20:57:14.618Z,8.10
2023-04-27T20:59:43.006Z,8.13
2023-04-27T21:02:11.245Z,8.20
2023-04-27T21:04:39.846Z,8.23
2023-04-27T21:07:08.260Z,8.24
2023-04-27T21:09:38.595Z,8.31
2023-04-27T21:12:08.821Z,8.24
2023-04-27T21:14:37.611Z,8.19
2023-04-27T21:17:06.202Z,8.11
2023-04-27T21:19:34.540Z,8.05
2023-04-27T21:22:02.880Z,8.15
2023-04-27T21:24:31.107Z,8.18
2023-04-27T21:26:59.588Z,8.15
2023-04-27T21:29:29.223Z,8.13
2023-04-27T21:31:57.581Z,8.08
2023-04-27T21:34:25.811Z,8.04
2023-04-27T21:36:54.161Z,7.98
2023-04-27T21:39:22.417Z,8.04
2023-04-27T21:41:50.768Z,8.04
2023-04-27T21:44:19.400Z,8.05
2023-04-27T21:46:49.266Z,8.09
2023-04-27T21:49:18.205Z,8.06
2023-04-27T21:51:46.693Z,8.01
2023-04-27T21:54:15.253Z,8.03
2023-04-27T21:56:43.929Z,7.96
2023-04-27T21:59:12.349Z,7.90
2023-04-27T22:01:41.475Z,7.88
2023-04-27T22:04:11.504Z,7.78
2023-04-27T22:06:40.938Z,7.72
2023-04-27T22:09:09.571Z,7.66
2023-04-27T22:11:37.950Z,7.62
2023-04-27T22:14:06.528Z,7.49
2023-04-27T22:16:35.102Z,7.47
2023-04-27T22:19:03.937Z,7.45
2023-04-27T22:21:34.544Z,7.40
2023-04-27T22:24:03.035Z,7.39
2023-04-27T22:26:31.450Z,7.37
2023-04-27T22:28:59.903Z,7.49
2023-04-27T22:31:28.437Z,7.30
2023-04-27T22:33:57.067Z,7.40
2023-04-27T22:36:25.641Z,7.33
2023-04-27T22:38:55.694Z,7.27
2023-04-27T22:41:24.360Z,7.40
2023-04-27T22:43:52.666Z,7.40
2023-04-27T22:46:23.104Z,7.39
2023-04-27T22:48:52.893Z,7.49
2023-04-27T22:51:21.838Z,7.52
2023-04-27T22:53:50.228Z,7.50
2023-04-27T22:56:19.900Z,7.52
2023-04-27T22:58:48.327Z,7.54
2023-04-27T23:01:16.680Z,7.40
2023-04-27T23:03:45.112Z,7.43
2023-04-27T23:06:16.745Z,7.44
2023-04-27T23:08:47.191Z,7.37
2023-04-27T23:11:19.053Z,7.37
2023-04-27T23:13:50.685Z,7.39
2023-04-27T23:16:19.004Z,7.37
2023-04-27T23:18:47.402Z,7.34
2023-04-27T23:21:15.682Z,7.25
2023-04-27T23:23:44.176Z,7.25
2023-04-27T23:26:16.428Z,7.31
2023-04-27T23:28:45.021Z,7.32
2023-04-27T23:31:14.922Z,7.32
2023-04-27T23:33:43.255Z,7.38
2023-04-27T23:36:11.500Z,7.40
2023-04-27T23:38:39.918Z,7.39
2023-04-27T23:41:08.137Z,7.41
2023-04-27T23:43:36.387Z,7.41
2023-04-27T23:46:05.849Z,7.39
2023-04-27T23:48:36.627Z,7.37
2023-04-27T23:51:06.106Z,7.34
2023-04-27T23:53:34.472Z,7.33
2023-04-27T23:56:02.755Z,7.31
2023-04-27T23:58:31.078Z,7.27
